sensor_id;sensor_type;location;lat;lon;timestamp;temperature;humidity
65573;SHT30;52214;50.940;13.996;2022-11-12T00:00:39;5.18;99.99
65573;SHT30;52214;50.940;13.996;2022-11-12T00:03:05;5.25;99.99
65573;SHT30;52214;50.940;13.996;2022-11-12T00:05:31;5.15;99.99
65573;SHT30;52214;50.940;13.996;2022-11-12T00:07:57;5.11;99.99
65573;SHT30;52214;50.940;13.996;2022-11-12T00:10:23;5.11;99.99
65573;SHT30;52214;50.940;13.996;2022-11-12T00:12:48;5.15;99.99
65573;SHT30;52214;50.940;13.996;2022-11-12T00:15:14;5.21;99.99
65573;SHT30;52214;50.940;13.996;2022-11-12T00:17:40;5.08;99.99
65573;SHT30;52214;50.940;13.996;2022-11-12T00:20:06;5.19;99.99
65573;SHT30;52214;50.940;13.996;2022-11-12T00:22:32;5.02;99.99
65573;SHT30;52214;50.940;13.996;2022-11-12T00:24:58;5.07;99.99
65573;SHT30;52214;50.940;13.996;2022-11-12T00:27:23;5.08;99.99
65573;SHT30;52214;50.940;13.996;2022-11-12T00:29:49;5.12;99.99
65573;SHT30;52214;50.940;13.996;2022-11-12T00:32:15;5.11;99.99
65573;SHT30;52214;50.940;13.996;2022-11-12T00:34:40;5.07;99.99
65573;SHT30;52214;50.940;13.996;2022-11-12T00:37:06;5.04;99.99
65573;SHT30;52214;50.940;13.996;2022-11-12T00:39:31;5.15;99.99
65573;SHT30;52214;50.940;13.996;2022-11-12T00:41:57;5.00;99.99
65573;SHT30;52214;50.940;13.996;2022-11-12T00:44:23;5.02;99.99
65573;SHT30;52214;50.940;13.996;2022-11-12T00:46:48;5.05;99.99
65573;SHT30;52214;50.940;13.996;2022-11-12T00:49:14;5.21;99.99
65573;SHT30;52214;50.940;13.996;2022-11-12T00:51:40;4.98;99.99
65573;SHT30;52214;50.940;13.996;2022-11-12T00:54:05;5.01;99.99
65573;SHT30;52214;50.940;13.996;2022-11-12T00:56:31;4.94;99.99
65573;SHT30;52214;50.940;13.996;2022-11-12T00:58:57;5.05;99.99
65573;SHT30;52214;50.940;13.996;2022-11-12T01:01:25;5.09;99.99
65573;SHT30;52214;50.940;13.996;2022-11-12T01:03:51;5.01;99.99
65573;SHT30;52214;50.940;13.996;2022-11-12T01:06:22;5.05;99.99
65573;SHT30;52214;50.940;13.996;2022-11-12T01:08:48;5.07;99.99
65573;SHT30;52214;50.940;13.996;2022-11-12T01:11:20;4.97;99.99
65573;SHT30;52214;50.940;13.996;2022-11-12T01:13:52;4.94;99.99
65573;SHT30;52214;50.940;13.996;2022-11-12T01:16:21;4.95;99.99
65573;SHT30;52214;50.940;13.996;2022-11-12T01:18:51;4.88;99.99
65573;SHT30;52214;50.940;13.996;2022-11-12T01:21:17;4.79;99.99
65573;SHT30;52214;50.940;13.996;2022-11-12T01:23:43;4.80;99.99
65573;SHT30;52214;50.940;13.996;2022-11-12T01:26:11;4.73;99.99
65573;SHT30;52214;50.940;13.996;2022-11-12T01:28:37;4.70;99.99
65573;SHT30;52214;50.940;13.996;2022-11-12T01:31:23;4.80;99.99
65573;SHT30;52214;50.940;13.996;2022-11-12T01:33:52;4.72;99.99
65573;SHT30;52214;50.940;13.996;2022-11-12T01:36:18;4.77;99.99
65573;SHT30;52214;50.940;13.996;2022-11-12T01:38:45;4.79;99.99
65573;SHT30;52214;50.940;13.996;2022-11-12T01:41:18;4.84;99.99
65573;SHT30;52214;50.940;13.996;2022-11-12T01:43:44;4.85;99.99
65573;SHT30;52214;50.940;13.996;2022-11-12T01:46:17;4.74;99.99
65573;SHT30;52214;50.940;13.996;2022-11-12T01:48:58;4.74;99.99
65573;SHT30;52214;50.940;13.996;2022-11-12T01:51:32;4.76;99.99
65573;SHT30;52214;50.940;13.996;2022-11-12T01:54:02;4.83;99.99
65573;SHT30;52214;50.940;13.996;2022-11-12T01:56:30;4.77;99.99
65573;SHT30;52214;50.940;13.996;2022-11-12T01:59:21;4.84;99.99
65573;SHT30;52214;50.940;13.996;2022-11-12T02:01:48;4.79;99.99
65573;SHT30;52214;50.940;13.996;2022-11-12T02:04:14;4.83;99.99
65573;SHT30;52214;50.940;13.996;2022-11-12T02:06:40;4.97;99.99
65573;SHT30;52214;50.940;13.996;2022-11-12T02:09:08;4.91;99.99
65573;SHT30;52214;50.940;13.996;2022-11-12T02:11:34;4.88;99.99
65573;SHT30;52214;50.940;13.996;2022-11-12T02:13:59;4.88;99.99
65573;SHT30;52214;50.940;13.996;2022-11-12T02:16:35;5.00;99.99
65573;SHT30;52214;50.940;13.996;2022-11-12T02:19:02;4.91;99.99
65573;SHT30;52214;50.940;13.996;2022-11-12T02:21:29;4.91;99.99
65573;SHT30;52214;50.940;13.996;2022-11-12T02:23:59;4.92;99.99
65573;SHT30;52214;50.940;13.996;2022-11-12T02:26:28;4.92;99.99
65573;SHT30;52214;50.940;13.996;2022-11-12T02:28:54;4.94;99.99
65573;SHT30;52214;50.940;13.996;2022-11-12T02:31:20;5.01;99.99
65573;SHT30;52214;50.940;13.996;2022-11-12T02:33:45;5.08;99.99
65573;SHT30;52214;50.940;13.996;2022-11-12T02:36:11;5.08;99.99
65573;SHT30;52214;50.940;13.996;2022-11-12T02:38:36;4.95;99.99
65573;SHT30;52214;50.940;13.996;2022-11-12T02:41:02;4.85;99.99
65573;SHT30;52214;50.940;13.996;2022-11-12T02:43:27;4.80;99.99
65573;SHT30;52214;50.940;13.996;2022-11-12T02:45:53;4.92;99.99
65573;SHT30;52214;50.940;13.996;2022-11-12T02:48:18;4.94;99.99
65573;SHT30;52214;50.940;13.996;2022-11-12T02:50:46;4.97;99.99
65573;SHT30;52214;50.940;13.996;2022-11-12T02:53:11;4.85;99.99
65573;SHT30;52214;50.940;13.996;2022-11-12T02:55:37;4.91;99.99
65573;SHT30;52214;50.940;13.996;2022-11-12T02:58:02;4.87;99.99
65573;SHT30;52214;50.940;13.996;2022-11-12T03:00:28;4.87;99.99
65573;SHT30;52214;50.940;13.996;2022-11-12T03:02:53;4.84;99.99
65573;SHT30;52214;50.940;13.996;2022-11-12T03:05:27;4.72;99.99
65573;SHT30;52214;50.940;13.996;2022-11-12T03:08:00;4.66;99.99
65573;SHT30;52214;50.940;13.996;2022-11-12T03:10:27;4.62;99.99
65573;SHT30;52214;50.940;13.996;2022-11-12T03:12:54;4.57;99.99
65573;SHT30;52214;50.940;13.996;2022-11-12T03:15:20;4.55;99.99
65573;SHT30;52214;50.940;13.996;2022-11-12T03:17:46;4.46;99.99
65573;SHT30;52214;50.940;13.996;2022-11-12T03:20:12;4.53;99.99
65573;SHT30;52214;50.940;13.996;2022-11-12T03:22:38;4.48;99.99
65573;SHT30;52214;50.940;13.996;2022-11-12T03:25:05;4.44;99.99
65573;SHT30;52214;50.940;13.996;2022-11-12T03:27:31;4.52;99.99
65573;SHT30;52214;50.940;13.996;2022-11-12T03:29:57;4.59;99.99
65573;SHT30;52214;50.940;13.996;2022-11-12T03:32:23;4.46;99.99
65573;SHT30;52214;50.940;13.996;2022-11-12T03:34:48;4.59;99.99
65573;SHT30;52214;50.940;13.996;2022-11-12T03:37:14;4.48;99.99
65573;SHT30;52214;50.940;13.996;2022-11-12T03:39:39;4.56;99.99
65573;SHT30;52214;50.940;13.996;2022-11-12T03:42:05;4.56;99.99
65573;SHT30;52214;50.940;13.996;2022-11-12T03:44:31;4.60;99.99
65573;SHT30;52214;50.940;13.996;2022-11-12T03:46:57;4.60;99.99
65573;SHT30;52214;50.940;13.996;2022-11-12T03:49:22;4.55;99.99
65573;SHT30;52214;50.940;13.996;2022-11-12T03:51:48;4.67;99.99
65573;SHT30;52214;50.940;13.996;2022-11-12T03:54:13;4.69;99.99
65573;SHT30;52214;50.940;13.996;2022-11-12T03:56:39;4.72;99.99
65573;SHT30;52214;50.940;13.996;2022-11-12T03:59:04;4.73;99.99
65573;SHT30;52214;50.940;13.996;2022-11-12T04:01:30;4.73;99.99
65573;SHT30;52214;50.940;13.996;2022-11-12T04:03:56;4.77;99.99
65573;SHT30;52214;50.940;13.996;2022-11-12T04:06:22;4.64;99.99
65573;SHT30;52214;50.940;13.996;2022-11-12T04:09:06;4.70;99.99
65573;SHT30;52214;50.940;13.996;2022-11-12T04:11:31;4.70;99.99
65573;SHT30;52214;50.940;13.996;2022-11-12T04:13:57;4.62;99.99
65573;SHT30;52214;50.940;13.996;2022-11-12T04:16:23;4.56;99.99
65573;SHT30;52214;50.940;13.996;2022-11-12T04:19:10;4.46;99.99
65573;SHT30;52214;50.940;13.996;2022-11-12T04:22:03;4.53;99.99
65573;SHT30;52214;50.940;13.996;2022-11-12T04:24:33;4.42;99.99
65573;SHT30;52214;50.940;13.996;2022-11-12T04:27:27;4.46;99.99
65573;SHT30;52214;50.940;13.996;2022-11-12T04:29:53;4.36;99.99
65573;SHT30;52214;50.940;13.996;2022-11-12T04:32:40;4.45;99.99
65573;SHT30;52214;50.940;13.996;2022-11-12T04:35:09;4.39;99.99
65573;SHT30;52214;50.940;13.996;2022-11-12T04:37:36;4.39;99.99
65573;SHT30;52214;50.940;13.996;2022-11-12T04:40:13;4.38;99.99
65573;SHT30;52214;50.940;13.996;2022-11-12T04:42:58;4.41;99.99
65573;SHT30;52214;50.940;13.996;2022-11-12T04:45:44;4.29;99.99
65573;SHT30;52214;50.940;13.996;2022-11-12T04:48:10;4.28;99.99
65573;SHT30;52214;50.940;13.996;2022-11-12T04:50:36;4.35;99.99
65573;SHT30;52214;50.940;13.996;2022-11-12T04:53:01;4.19;99.99
65573;SHT30;52214;50.940;13.996;2022-11-12T04:55:27;4.21;99.99
65573;SHT30;52214;50.940;13.996;2022-11-12T04:57:52;4.14;99.99
65573;SHT30;52214;50.940;13.996;2022-11-12T05:00:18;4.05;99.99
65573;SHT30;52214;50.940;13.996;2022-11-12T05:02:43;4.09;99.99
65573;SHT30;52214;50.940;13.996;2022-11-12T05:05:09;3.91;99.99
65573;SHT30;52214;50.940;13.996;2022-11-12T05:07:35;3.91;99.99
65573;SHT30;52214;50.940;13.996;2022-11-12T05:10:00;3.98;99.99
65573;SHT30;52214;50.940;13.996;2022-11-12T05:12:26;3.87;99.99
65573;SHT30;52214;50.940;13.996;2022-11-12T05:14:51;3.79;99.99
65573;SHT30;52214;50.940;13.996;2022-11-12T05:17:17;3.69;99.99
65573;SHT30;52214;50.940;13.996;2022-11-12T05:19:42;3.84;99.99
65573;SHT30;52214;50.940;13.996;2022-11-12T05:22:11;3.62;99.99
65573;SHT30;52214;50.940;13.996;2022-11-12T05:24:41;3.58;99.99
65573;SHT30;52214;50.940;13.996;2022-11-12T05:27:13;3.60;99.99
65573;SHT30;52214;50.940;13.996;2022-11-12T05:29:39;3.63;99.99
65573;SHT30;52214;50.940;13.996;2022-11-12T05:32:06;3.53;99.99
65573;SHT30;52214;50.940;13.996;2022-11-12T05:34:32;3.53;99.99
65573;SHT30;52214;50.940;13.996;2022-11-12T05:36:58;3.70;99.99
65573;SHT30;52214;50.940;13.996;2022-11-12T05:42:10;3.67;99.99
65573;SHT30;52214;50.940;13.996;2022-11-12T05:44:35;3.49;99.99
65573;SHT30;52214;50.940;13.996;2022-11-12T05:47:01;3.49;99.99
65573;SHT30;52214;50.940;13.996;2022-11-12T05:49:26;3.52;99.99
65573;SHT30;52214;50.940;13.996;2022-11-12T05:51:52;3.63;99.99
65573;SHT30;52214;50.940;13.996;2022-11-12T05:54:17;3.66;99.99
65573;SHT30;52214;50.940;13.996;2022-11-12T05:56:43;3.67;99.99
65573;SHT30;52214;50.940;13.996;2022-11-12T05:59:11;3.72;99.99
65573;SHT30;52214;50.940;13.996;2022-11-12T06:01:38;3.64;99.99
65573;SHT30;52214;50.940;13.996;2022-11-12T06:04:13;3.51;99.99
65573;SHT30;52214;50.940;13.996;2022-11-12T06:06:43;3.69;99.99
65573;SHT30;52214;50.940;13.996;2022-11-12T06:09:09;3.66;99.99
65573;SHT30;52214;50.940;13.996;2022-11-12T06:11:35;3.59;99.99
65573;SHT30;52214;50.940;13.996;2022-11-12T06:14:02;3.69;99.99
65573;SHT30;52214;50.940;13.996;2022-11-12T06:16:28;3.59;99.99
65573;SHT30;52214;50.940;13.996;2022-11-12T06:18:54;3.56;99.99
65573;SHT30;52214;50.940;13.996;2022-11-12T06:21:20;3.53;99.99
65573;SHT30;52214;50.940;13.996;2022-11-12T06:23:51;3.62;99.99
65573;SHT30;52214;50.940;13.996;2022-11-12T06:26:18;3.55;99.99
65573;SHT30;52214;50.940;13.996;2022-11-12T06:28:45;3.63;99.99
65573;SHT30;52214;50.940;13.996;2022-11-12T06:31:11;3.56;99.99
65573;SHT30;52214;50.940;13.996;2022-11-12T06:33:37;3.48;99.99
65573;SHT30;52214;50.940;13.996;2022-11-12T06:36:04;3.58;99.99
65573;SHT30;52214;50.940;13.996;2022-11-12T06:38:35;3.48;99.99
65573;SHT30;52214;50.940;13.996;2022-11-12T06:41:01;3.45;99.99
65573;SHT30;52214;50.940;13.996;2022-11-12T06:43:29;3.38;99.99
65573;SHT30;52214;50.940;13.996;2022-11-12T06:46:06;3.46;99.99
65573;SHT30;52214;50.940;13.996;2022-11-12T06:48:32;3.48;99.99
65573;SHT30;52214;50.940;13.996;2022-11-12T06:51:05;3.43;99.99
65573;SHT30;52214;50.940;13.996;2022-11-12T06:53:31;3.40;99.99
65573;SHT30;52214;50.940;13.996;2022-11-12T06:56:01;3.40;99.99
65573;SHT30;52214;50.940;13.996;2022-11-12T06:58:26;3.36;99.99
65573;SHT30;52214;50.940;13.996;2022-11-12T07:00:52;3.42;99.99
65573;SHT30;52214;50.940;13.996;2022-11-12T07:03:17;3.53;99.99
65573;SHT30;52214;50.940;13.996;2022-11-12T07:05:43;3.51;99.99
65573;SHT30;52214;50.940;13.996;2022-11-12T07:08:08;3.51;99.99
65573;SHT30;52214;50.940;13.996;2022-11-12T07:10:37;3.72;99.99
65573;SHT30;52214;50.940;13.996;2022-11-12T07:13:02;3.81;99.99
65573;SHT30;52214;50.940;13.996;2022-11-12T07:15:28;3.70;99.99
65573;SHT30;52214;50.940;13.996;2022-11-12T07:17:53;3.93;99.99
65573;SHT30;52214;50.940;13.996;2022-11-12T07:20:19;3.95;99.99
65573;SHT30;52214;50.940;13.996;2022-11-12T07:22:44;4.04;99.99
65573;SHT30;52214;50.940;13.996;2022-11-12T07:25:10;4.09;99.99
65573;SHT30;52214;50.940;13.996;2022-11-12T07:27:35;4.15;99.99
65573;SHT30;52214;50.940;13.996;2022-11-12T07:30:01;4.18;99.99
65573;SHT30;52214;50.940;13.996;2022-11-12T07:32:26;4.12;99.99
65573;SHT30;52214;50.940;13.996;2022-11-12T07:34:52;3.98;99.99
65573;SHT30;52214;50.940;13.996;2022-11-12T07:37:17;4.07;99.99
65573;SHT30;52214;50.940;13.996;2022-11-12T07:39:43;4.15;99.99
65573;SHT30;52214;50.940;13.996;2022-11-12T07:42:08;4.36;99.99
65573;SHT30;52214;50.940;13.996;2022-11-12T07:44:34;4.50;99.99
65573;SHT30;52214;50.940;13.996;2022-11-12T07:46:59;4.38;99.99
65573;SHT30;52214;50.940;13.996;2022-11-12T07:49:25;4.66;99.99
65573;SHT30;52214;50.940;13.996;2022-11-12T07:51:50;4.52;99.99
65573;SHT30;52214;50.940;13.996;2022-11-12T07:54:16;4.53;99.99
65573;SHT30;52214;50.940;13.996;2022-11-12T07:56:41;4.38;99.99
65573;SHT30;52214;50.940;13.996;2022-11-12T07:59:07;4.52;99.99
65573;SHT30;52214;50.940;13.996;2022-11-12T08:01:34;4.49;99.99
65573;SHT30;52214;50.940;13.996;2022-11-12T08:04:02;4.53;99.99
65573;SHT30;52214;50.940;13.996;2022-11-12T08:06:29;4.35;99.99
65573;SHT30;52214;50.940;13.996;2022-11-12T08:08:56;4.57;99.99
65573;SHT30;52214;50.940;13.996;2022-11-12T08:11:22;4.44;99.99
65573;SHT30;52214;50.940;13.996;2022-11-12T08:13:48;4.41;99.99
65573;SHT30;52214;50.940;13.996;2022-11-12T08:16:15;4.44;99.99
65573;SHT30;52214;50.940;13.996;2022-11-12T08:18:41;4.41;99.99
65573;SHT30;52214;50.940;13.996;2022-11-12T08:21:10;4.67;99.99
65573;SHT30;52214;50.940;13.996;2022-11-12T08:23:36;4.76;99.99
65573;SHT30;52214;50.940;13.996;2022-11-12T08:26:03;4.79;99.99
65573;SHT30;52214;50.940;13.996;2022-11-12T08:28:31;4.81;99.99
65573;SHT30;52214;50.940;13.996;2022-11-12T08:30:57;4.98;99.99
65573;SHT30;52214;50.940;13.996;2022-11-12T08:33:27;5.11;99.99
65573;SHT30;52214;50.940;13.996;2022-11-12T08:35:54;5.15;99.93
65573;SHT30;52214;50.940;13.996;2022-11-12T08:38:19;5.00;99.99
65573;SHT30;52214;50.940;13.996;2022-11-12T08:40:45;5.18;99.99
65573;SHT30;52214;50.940;13.996;2022-11-12T08:43:10;5.42;99.56
65573;SHT30;52214;50.940;13.996;2022-11-12T08:45:37;5.19;99.94
65573;SHT30;52214;50.940;13.996;2022-11-12T08:48:11;5.21;99.51
65573;SHT30;52214;50.940;13.996;2022-11-12T08:50:39;5.39;99.58
65573;SHT30;52214;50.940;13.996;2022-11-12T08:53:10;5.36;99.99
65573;SHT30;52214;50.940;13.996;2022-11-12T08:55:36;5.64;98.97
65573;SHT30;52214;50.940;13.996;2022-11-12T08:58:03;5.53;98.75
65573;SHT30;52214;50.940;13.996;2022-11-12T09:00:38;5.19;99.99
65573;SHT30;52214;50.940;13.996;2022-11-12T09:03:06;5.46;99.99
65573;SHT30;52214;50.940;13.996;2022-11-12T09:05:34;5.63;99.81
65573;SHT30;52214;50.940;13.996;2022-11-12T09:08:04;5.67;99.36
65573;SHT30;52214;50.940;13.996;2022-11-12T09:10:31;6.02;98.90
65573;SHT30;52214;50.940;13.996;2022-11-12T09:12:57;6.15;98.72
65573;SHT30;52214;50.940;13.996;2022-11-12T09:15:23;6.30;98.29
65573;SHT30;52214;50.940;13.996;2022-11-12T09:18:01;6.01;98.37
65573;SHT30;52214;50.940;13.996;2022-11-12T09:20:27;5.78;99.46
65573;SHT30;52214;50.940;13.996;2022-11-12T09:22:56;5.98;99.48
65573;SHT30;52214;50.940;13.996;2022-11-12T09:25:22;6.01;99.44
65573;SHT30;52214;50.940;13.996;2022-11-12T09:27:48;5.90;98.92
65573;SHT30;52214;50.940;13.996;2022-11-12T09:30:14;6.12;99.46
65573;SHT30;52214;50.940;13.996;2022-11-12T09:32:40;6.05;99.46
65573;SHT30;52214;50.940;13.996;2022-11-12T09:35:06;6.28;98.40
65573;SHT30;52214;50.940;13.996;2022-11-12T09:37:31;6.81;97.45
65573;SHT30;52214;50.940;13.996;2022-11-12T09:39:57;6.64;98.25
65573;SHT30;52214;50.940;13.996;2022-11-12T09:42:23;6.79;98.08
65573;SHT30;52214;50.940;13.996;2022-11-12T09:45:03;6.98;97.89
65573;SHT30;52214;50.940;13.996;2022-11-12T09:47:36;6.92;98.04
65573;SHT30;52214;50.940;13.996;2022-11-12T09:52:32;7.40;98.30
65573;SHT30;52214;50.940;13.996;2022-11-12T09:55:07;7.46;98.77
65573;SHT30;52214;50.940;13.996;2022-11-12T09:57:37;7.60;98.72
65573;SHT30;52214;50.940;13.996;2022-11-12T10:00:18;7.87;99.03
65573;SHT30;52214;50.940;13.996;2022-11-12T10:02:52;8.18;98.46
65573;SHT30;52214;50.940;13.996;2022-11-12T10:05:42;8.26;97.63
65573;SHT30;52214;50.940;13.996;2022-11-12T10:11:09;8.06;97.35
65573;SHT30;52214;50.940;13.996;2022-11-12T10:25:16;8.29;96.12
65573;SHT30;52214;50.940;13.996;2022-11-12T10:27:43;8.32;96.13
65573;SHT30;52214;50.940;13.996;2022-11-12T10:30:17;8.38;96.18
65573;SHT30;52214;50.940;13.996;2022-11-12T10:32:45;8.35;95.90
65573;SHT30;52214;50.940;13.996;2022-11-12T10:35:15;8.47;96.24
65573;SHT30;52214;50.940;13.996;2022-11-12T10:37:59;8.45;95.15
65573;SHT30;52214;50.940;13.996;2022-11-12T10:40:33;8.74;94.43
65573;SHT30;52214;50.940;13.996;2022-11-12T10:43:19;8.36;95.26
65573;SHT30;52214;50.940;13.996;2022-11-12T10:45:47;8.36;95.46
65573;SHT30;52214;50.940;13.996;2022-11-12T10:48:30;8.43;95.55
65573;SHT30;52214;50.940;13.996;2022-11-12T10:50:59;9.21;93.82
65573;SHT30;52214;50.940;13.996;2022-11-12T10:53:36;10.71;89.39
65573;SHT30;52214;50.940;13.996;2022-11-12T10:56:25;11.57;87.19
65573;SHT30;52214;50.940;13.996;2022-11-12T11:01:39;12.40;84.20
65573;SHT30;52214;50.940;13.996;2022-11-12T11:04:15;13.01;82.14
65573;SHT30;52214;50.940;13.996;2022-11-12T11:06:41;13.39;80.77
65573;SHT30;52214;50.940;13.996;2022-11-12T11:09:14;13.11;82.25
65573;SHT30;52214;50.940;13.996;2022-11-12T11:11:51;13.40;82.48
65573;SHT30;52214;50.940;13.996;2022-11-12T11:16:54;13.53;82.38
65573;SHT30;52214;50.940;13.996;2022-11-12T11:19:21;13.90;81.07
65573;SHT30;52214;50.940;13.996;2022-11-12T12:04:43;20.01;55.83
65573;SHT30;52214;50.940;13.996;2022-11-12T12:10:11;20.89;46.57
65573;SHT30;52214;50.940;13.996;2022-11-12T12:15:25;20.96;47.92
65573;SHT30;52214;50.940;13.996;2022-11-12T12:18:12;21.92;49.56
65573;SHT30;52214;50.940;13.996;2022-11-12T12:20:46;21.52;50.55
65573;SHT30;52214;50.940;13.996;2022-11-12T12:23:35;20.80;49.56
65573;SHT30;52214;50.940;13.996;2022-11-12T12:26:08;20.53;52.24
65573;SHT30;52214;50.940;13.996;2022-11-12T12:28:57;21.49;50.17
65573;SHT30;52214;50.940;13.996;2022-11-12T12:31:34;20.87;49.94
65573;SHT30;52214;50.940;13.996;2022-11-12T12:34:15;20.84;46.97
65573;SHT30;52214;50.940;13.996;2022-11-12T12:36:42;19.74;49.71
65573;SHT30;52214;50.940;13.996;2022-11-12T12:39:18;20.17;51.96
65573;SHT30;52214;50.940;13.996;2022-11-12T12:42:13;19.59;49.35
65573;SHT30;52214;50.940;13.996;2022-11-12T12:44:45;19.59;55.07
65573;SHT30;52214;50.940;13.996;2022-11-12T12:47:37;19.96;53.17
65573;SHT30;52214;50.940;13.996;2022-11-12T12:50:09;19.58;54.89
65573;SHT30;52214;50.940;13.996;2022-11-12T12:57:59;18.82;57.15
65573;SHT30;52214;50.940;13.996;2022-11-12T13:03:00;19.12;55.21
65573;SHT30;52214;50.940;13.996;2022-11-12T13:05:30;20.07;54.30
65573;SHT30;52214;50.940;13.996;2022-11-12T13:08:04;19.84;55.33
65573;SHT30;52214;50.940;13.996;2022-11-12T13:13:25;19.84;55.24
65573;SHT30;52214;50.940;13.996;2022-11-12T13:15:55;20.56;52.96
65573;SHT30;52214;50.940;13.996;2022-11-12T13:21:20;19.89;55.31
65573;SHT30;52214;50.940;13.996;2022-11-12T13:24:12;19.74;53.50
65573;SHT30;52214;50.940;13.996;2022-11-12T13:29:23;19.82;55.59
65573;SHT30;52214;50.940;13.996;2022-11-12T13:31:49;19.46;52.58
65573;SHT30;52214;50.940;13.996;2022-11-12T13:34:34;19.10;54.36
65573;SHT30;52214;50.940;13.996;2022-11-12T13:37:03;19.21;55.99
65573;SHT30;52214;50.940;13.996;2022-11-12T13:39:31;19.59;53.81
65573;SHT30;52214;50.940;13.996;2022-11-12T13:42:00;19.07;54.22
65573;SHT30;52214;50.940;13.996;2022-11-12T13:44:45;19.17;53.77
65573;SHT30;52214;50.940;13.996;2022-11-12T13:47:16;19.38;53.49
65573;SHT30;52214;50.940;13.996;2022-11-12T13:49:44;19.10;55.54
65573;SHT30;52214;50.940;13.996;2022-11-12T13:52:14;18.96;56.78
65573;SHT30;52214;50.940;13.996;2022-11-12T13:54:41;18.76;56.47
65573;SHT30;52214;50.940;13.996;2022-11-12T13:57:25;18.74;53.54
65573;SHT30;52214;50.940;13.996;2022-11-12T14:02:43;18.77;55.00
65573;SHT30;52214;50.940;13.996;2022-11-12T14:05:15;19.28;55.50
65573;SHT30;52214;50.940;13.996;2022-11-12T14:08:09;18.84;54.08
65573;SHT30;52214;50.940;13.996;2022-11-12T14:22:18;19.70;56.19
65573;SHT30;52214;50.940;13.996;2022-11-12T14:24:45;20.69;51.98
65573;SHT30;52214;50.940;13.996;2022-11-12T14:27:31;20.00;54.43
65573;SHT30;52214;50.940;13.996;2022-11-12T14:30:27;19.22;55.65
65573;SHT30;52214;50.940;13.996;2022-11-12T14:33:09;18.29;57.66
65573;SHT30;52214;50.940;13.996;2022-11-12T14:35:36;17.21;60.54
65573;SHT30;52214;50.940;13.996;2022-11-12T14:38:09;16.53;63.20
65573;SHT30;52214;50.940;13.996;2022-11-12T14:40:41;16.44;63.58
65573;SHT30;52214;50.940;13.996;2022-11-12T14:45:52;14.38;70.57
65573;SHT30;52214;50.940;13.996;2022-11-12T14:48:18;14.05;71.74
65573;SHT30;52214;50.940;13.996;2022-11-12T14:50:49;13.95;71.89
65573;SHT30;52214;50.940;13.996;2022-11-12T14:53:37;13.49;72.56
65573;SHT30;52214;50.940;13.996;2022-11-12T14:56:06;13.42;73.69
65573;SHT30;52214;50.940;13.996;2022-11-12T14:58:33;13.52;71.89
65573;SHT30;52214;50.940;13.996;2022-11-12T15:01:22;12.04;77.60
65573;SHT30;52214;50.940;13.996;2022-11-12T15:03:48;10.87;80.07
65573;SHT30;52214;50.940;13.996;2022-11-12T15:06:19;10.40;82.59
65573;SHT30;52214;50.940;13.996;2022-11-12T15:08:55;9.93;83.78
65573;SHT30;52214;50.940;13.996;2022-11-12T15:13:53;9.54;84.41
65573;SHT30;52214;50.940;13.996;2022-11-12T15:16:27;9.21;86.92
65573;SHT30;52214;50.940;13.996;2022-11-12T15:21:48;8.49;87.72
65573;SHT30;52214;50.940;13.996;2022-11-12T15:24:23;8.19;88.97
65573;SHT30;52214;50.940;13.996;2022-11-12T15:26:51;8.01;90.39
65573;SHT30;52214;50.940;13.996;2022-11-12T15:32:02;7.39;90.89
65573;SHT30;52214;50.940;13.996;2022-11-12T15:37:07;7.22;92.08
65573;SHT30;52214;50.940;13.996;2022-11-12T15:39:40;6.98;92.71
65573;SHT30;52214;50.940;13.996;2022-11-12T15:42:27;7.15;93.03
65573;SHT30;52214;50.940;13.996;2022-11-12T15:44:57;7.09;92.09
65573;SHT30;52214;50.940;13.996;2022-11-12T15:47:24;6.80;91.83
65573;SHT30;52214;50.940;13.996;2022-11-12T15:49:54;6.56;93.00
65573;SHT30;52214;50.940;13.996;2022-11-12T15:52:20;6.11;93.46
65573;SHT30;52214;50.940;13.996;2022-11-12T15:54:47;6.14;94.87
65573;SHT30;52214;50.940;13.996;2022-11-12T15:57:22;6.12;94.52
65573;SHT30;52214;50.940;13.996;2022-11-12T16:02:24;5.69;94.25
65573;SHT30;52214;50.940;13.996;2022-11-12T16:04:50;5.66;95.30
65573;SHT30;52214;50.940;13.996;2022-11-12T16:07:15;5.70;94.98
65573;SHT30;52214;50.940;13.996;2022-11-12T16:09:41;5.71;95.03
65573;SHT30;52214;50.940;13.996;2022-11-12T16:12:10;5.59;96.05
65573;SHT30;52214;50.940;13.996;2022-11-12T16:14:37;5.66;97.36
65573;SHT30;52214;50.940;13.996;2022-11-12T16:17:04;5.67;97.36
65573;SHT30;52214;50.940;13.996;2022-11-12T16:19:30;5.67;97.97
65573;SHT30;52214;50.940;13.996;2022-11-12T16:21:59;5.60;98.18
65573;SHT30;52214;50.940;13.996;2022-11-12T16:24:25;5.36;98.29
65573;SHT30;52214;50.940;13.996;2022-11-12T16:26:50;5.05;97.54
65573;SHT30;52214;50.940;13.996;2022-11-12T16:29:16;4.67;97.64
65573;SHT30;52214;50.940;13.996;2022-11-12T16:31:42;4.98;98.97
65573;SHT30;52214;50.940;13.996;2022-11-12T16:34:09;5.40;99.99
65573;SHT30;52214;50.940;13.996;2022-11-12T16:36:36;5.42;99.96
65573;SHT30;52214;50.940;13.996;2022-11-12T16:39:01;5.25;99.50
65573;SHT30;52214;50.940;13.996;2022-11-12T16:41:27;4.94;98.72
65573;SHT30;52214;50.940;13.996;2022-11-12T16:43:52;4.90;98.87
65573;SHT30;52214;50.940;13.996;2022-11-12T16:46:29;4.59;98.73
65573;SHT30;52214;50.940;13.996;2022-11-12T16:48:58;4.59;99.00
65573;SHT30;52214;50.940;13.996;2022-11-12T16:51:24;4.53;99.48
65573;SHT30;52214;50.940;13.996;2022-11-12T16:53:49;4.57;99.65
65573;SHT30;52214;50.940;13.996;2022-11-12T16:56:18;4.50;99.67
65573;SHT30;52214;50.940;13.996;2022-11-12T16:58:44;4.53;99.99
65573;SHT30;52214;50.940;13.996;2022-11-12T17:01:27;4.52;99.68
65573;SHT30;52214;50.940;13.996;2022-11-12T17:03:54;4.46;99.99
65573;SHT30;52214;50.940;13.996;2022-11-12T17:06:20;4.38;99.99
65573;SHT30;52214;50.940;13.996;2022-11-12T17:08:46;4.34;99.99
65573;SHT30;52214;50.940;13.996;2022-11-12T17:11:14;4.28;99.99
65573;SHT30;52214;50.940;13.996;2022-11-12T17:13:40;4.28;99.99
65573;SHT30;52214;50.940;13.996;2022-11-12T17:16:06;4.32;99.99
65573;SHT30;52214;50.940;13.996;2022-11-12T17:18:32;4.27;99.99
65573;SHT30;52214;50.940;13.996;2022-11-12T17:23:36;3.72;99.99
65573;SHT30;52214;50.940;13.996;2022-11-12T17:26:04;3.64;99.99
65573;SHT30;52214;50.940;13.996;2022-11-12T17:28:30;3.69;99.99
65573;SHT30;52214;50.940;13.996;2022-11-12T17:31:22;3.52;99.99
65573;SHT30;52214;50.940;13.996;2022-11-12T17:33:49;3.56;99.99
65573;SHT30;52214;50.940;13.996;2022-11-12T17:36:21;3.53;99.99
65573;SHT30;52214;50.940;13.996;2022-11-12T17:38:47;3.46;99.99
65573;SHT30;52214;50.940;13.996;2022-11-12T17:41:13;3.48;99.99
65573;SHT30;52214;50.940;13.996;2022-11-12T17:43:39;3.27;99.99